IBE0802 LOWI-LEMD
Flight info
| Callsign | IBE0802 |
|---|---|
| Flight time | 2h 44m |
| Altitude | 35000 |
| Route | BRENO M726 NAXAV M984 RENTA/N0452F330 DCT UNTAD/N0456F350 DCT GEKBA DCT VAMTU DCT KOLON DCT GANGU DCT PADKO DCT DIVKO DCT NILDU DCT NENDA N975 RAMON/N0446F310 N975 ADUXO |
| Aircraft | A321/M-SDE3FGHIRWY/LB1 |
Departure
| Time | 2026-05-07 16:51 |
|---|---|
| Airport | Innsbruck Airport (LOWI) |
Arrival
| Time | 2026-05-07 19:36 |
|---|---|
| Airport | Adolfo Suárez Madrid–Barajas Airport (LEMD) |
| Time | Latitude | Longitude | Altitude | Speed | Heading |
|---|---|---|---|---|---|
| 2026-05-07 16:10 | 47.25831 | 11.35109 | 1904 ft | 0 kts | 171° |
| 2026-05-07 16:41 | 47.25842 | 11.35106 | 1887 ft | 3 kts | 179° |
| 2026-05-07 16:42 | 47.25860 | 11.35114 | 1904 ft | 3 kts | 242° |
| 2026-05-07 16:42 | 47.25866 | 11.35137 | 1890 ft | 1 kts | 251° |
| 2026-05-07 16:45 | 47.25863 | 11.35102 | 1894 ft | 6 kts | 270° |
| 2026-05-07 16:45 | 47.25866 | 11.35041 | 1891 ft | 5 kts | 273° |
| 2026-05-07 16:46 | 47.25868 | 11.34984 | 1897 ft | 7 kts | 273° |
| 2026-05-07 16:46 | 47.25862 | 11.34898 | 1893 ft | 9 kts | 261° |
| 2026-05-07 16:46 | 47.25853 | 11.34814 | 1904 ft | 8 kts | 260° |
| 2026-05-07 16:46 | 47.25842 | 11.34716 | 1900 ft | 12 kts | 261° |
| 2026-05-07 16:47 | 47.25829 | 11.34600 | 1904 ft | 12 kts | 261° |
| 2026-05-07 16:47 | 47.25815 | 11.34463 | 1904 ft | 14 kts | 261° |
| 2026-05-07 16:47 | 47.25800 | 11.34327 | 1900 ft | 12 kts | 261° |
| 2026-05-07 16:47 | 47.25787 | 11.34211 | 1904 ft | 11 kts | 261° |
| 2026-05-07 16:48 | 47.25776 | 11.34106 | 1897 ft | 11 kts | 261° |
| 2026-05-07 16:48 | 47.25774 | 11.33995 | 1904 ft | 12 kts | 279° |
| 2026-05-07 16:48 | 47.25805 | 11.33891 | 1898 ft | 10 kts | 303° |
| 2026-05-07 16:48 | 47.25842 | 11.33814 | 1890 ft | 8 kts | 305° |
| 2026-05-07 16:49 | 47.25874 | 11.33748 | 1896 ft | 8 kts | 305° |
| 2026-05-07 16:49 | 47.25916 | 11.33662 | 1900 ft | 12 kts | 303° |
| 2026-05-07 16:49 | 47.25929 | 11.33553 | 1904 ft | 10 kts | 265° |
| 2026-05-07 16:49 | 47.25916 | 11.33429 | 1902 ft | 16 kts | 260° |
| 2026-05-07 16:50 | 47.25897 | 11.33272 | 1904 ft | 13 kts | 257° |
| 2026-05-07 16:50 | 47.25848 | 11.33183 | 1894 ft | 10 kts | 238° |
| 2026-05-07 16:50 | 47.25852 | 11.33089 | 1894 ft | 9 kts | 326° |
| 2026-05-07 16:50 | 47.25883 | 11.33119 | 1898 ft | 1 kts | 77° |
| 2026-05-07 16:51 | 47.25890 | 11.33171 | 1900 ft | 30 kts | 79° |
| 2026-05-07 16:51 | 47.25969 | 11.33900 | 1901 ft | 111 kts | 81° |
| 2026-05-07 16:51 | 47.26122 | 11.35354 | 2053 ft | 160 kts | 81° |
| 2026-05-07 16:51 | 47.26285 | 11.36949 | 2971 ft | 158 kts | 81° |
| 2026-05-07 16:52 | 47.26447 | 11.38570 | 3723 ft | 163 kts | 81° |
| 2026-05-07 16:52 | 47.26621 | 11.40255 | 4083 ft | 173 kts | 81° |
| 2026-05-07 16:52 | 47.26805 | 11.42035 | 4503 ft | 176 kts | 82° |
| 2026-05-07 16:52 | 47.26943 | 11.43784 | 5136 ft | 166 kts | 90° |
| 2026-05-07 16:53 | 47.26834 | 11.45464 | 5578 ft | 172 kts | 85° |
| 2026-05-07 16:53 | 47.27144 | 11.47228 | 5866 ft | 181 kts | 68° |
| 2026-05-07 16:53 | 47.27690 | 11.48903 | 6321 ft | 182 kts | 61° |
| 2026-05-07 16:53 | 47.28285 | 11.50538 | 6783 ft | 181 kts | 60° |
| 2026-05-07 16:54 | 47.28902 | 11.52162 | 7182 ft | 184 kts | 61° |
| 2026-05-07 16:54 | 47.29489 | 11.53863 | 7547 ft | 188 kts | 64° |
| 2026-05-07 16:54 | 47.30072 | 11.55651 | 7803 ft | 200 kts | 63° |
| 2026-05-07 16:54 | 47.30690 | 11.57561 | 8025 ft | 213 kts | 64° |
| 2026-05-07 16:55 | 47.31294 | 11.59607 | 8312 ft | 222 kts | 66° |
| 2026-05-07 16:55 | 47.31701 | 11.61862 | 8522 ft | 236 kts | 88° |
| 2026-05-07 16:55 | 47.31387 | 11.64277 | 8734 ft | 248 kts | 115° |
| 2026-05-07 16:55 | 47.30333 | 11.66294 | 9002 ft | 257 kts | 145° |
| 2026-05-07 16:56 | 47.28687 | 11.67269 | 9576 ft | 256 kts | 177° |
| 2026-05-07 16:56 | 47.26951 | 11.66853 | 10171 ft | 256 kts | 208° |
| 2026-05-07 16:56 | 47.25069 | 11.62764 | 11303 ft | 252 kts | 267° |
| 2026-05-07 16:57 | 47.25020 | 11.60184 | 11919 ft | 254 kts | 268° |
| 2026-05-07 16:57 | 47.24944 | 11.57576 | 12552 ft | 254 kts | 266° |
| 2026-05-07 16:57 | 47.24822 | 11.54977 | 13229 ft | 255 kts | 265° |
| 2026-05-07 16:57 | 47.24656 | 11.52378 | 13879 ft | 256 kts | 264° |
| 2026-05-07 16:58 | 47.24439 | 11.49766 | 14418 ft | 259 kts | 262° |
| 2026-05-07 16:58 | 47.24118 | 11.47141 | 14910 ft | 263 kts | 258° |
| 2026-05-07 16:58 | 47.23684 | 11.44515 | 15494 ft | 264 kts | 256° |
| 2026-05-07 16:58 | 47.23099 | 11.41954 | 16038 ft | 267 kts | 241° |
| 2026-05-07 16:59 | 47.21754 | 11.40049 | 16491 ft | 276 kts | 207° |
| 2026-05-07 16:59 | 47.19898 | 11.39267 | 17037 ft | 281 kts | 191° |
| 2026-05-07 16:59 | 47.17925 | 11.39019 | 17538 ft | 287 kts | 185° |
| 2026-05-07 16:59 | 47.15918 | 11.38965 | 18074 ft | 290 kts | 183° |
| 2026-05-07 17:00 | 47.13883 | 11.38951 | 18553 ft | 294 kts | 184° |
| 2026-05-07 17:00 | 47.11825 | 11.38900 | 18911 ft | 298 kts | 185° |
| 2026-05-07 17:00 | 47.09749 | 11.38794 | 19002 ft | 298 kts | 186° |
| 2026-05-07 17:00 | 47.07668 | 11.38634 | 19018 ft | 312 kts | 186° |
| 2026-05-07 17:01 | 47.05403 | 11.38422 | 19022 ft | 331 kts | 186° |
| 2026-05-07 17:01 | 47.03030 | 11.38180 | 19019 ft | 352 kts | 186° |
| 2026-05-07 17:01 | 47.00555 | 11.37923 | 19015 ft | 370 kts | 186° |
| 2026-05-07 17:01 | 46.97897 | 11.37647 | 18997 ft | 386 kts | 186° |
| 2026-05-07 17:02 | 46.95204 | 11.37360 | 19002 ft | 398 kts | 186° |
| 2026-05-07 17:02 | 46.92416 | 11.37057 | 19005 ft | 402 kts | 186° |
| 2026-05-07 17:02 | 46.89623 | 11.36752 | 19007 ft | 403 kts | 186° |
| 2026-05-07 17:02 | 46.86827 | 11.36443 | 19005 ft | 403 kts | 186° |
| 2026-05-07 17:03 | 46.84035 | 11.36135 | 19007 ft | 403 kts | 186° |
| 2026-05-07 17:03 | 46.81234 | 11.35826 | 18988 ft | 403 kts | 186° |
| 2026-05-07 17:03 | 46.78437 | 11.35517 | 18996 ft | 403 kts | 186° |
| 2026-05-07 17:03 | 46.75636 | 11.35213 | 18991 ft | 403 kts | 186° |
| 2026-05-07 17:04 | 46.72842 | 11.34922 | 19000 ft | 404 kts | 186° |
| 2026-05-07 17:04 | 46.70024 | 11.34636 | 19370 ft | 407 kts | 186° |
| 2026-05-07 17:04 | 46.67188 | 11.34350 | 19707 ft | 409 kts | 186° |
| 2026-05-07 17:04 | 46.64337 | 11.34063 | 20076 ft | 411 kts | 186° |
| 2026-05-07 17:05 | 46.61480 | 11.33770 | 20410 ft | 413 kts | 186° |
| 2026-05-07 17:05 | 46.58609 | 11.33473 | 20789 ft | 414 kts | 186° |
| 2026-05-07 17:05 | 46.55728 | 11.33175 | 21136 ft | 416 kts | 186° |
| 2026-05-07 17:05 | 46.52844 | 11.32743 | 21484 ft | 416 kts | 193° |
| 2026-05-07 17:06 | 46.50109 | 11.31610 | 21787 ft | 414 kts | 205° |
| 2026-05-07 17:06 | 46.47571 | 11.29658 | 22138 ft | 413 kts | 217° |
| 2026-05-07 17:06 | 46.45368 | 11.26984 | 22495 ft | 412 kts | 228° |
| 2026-05-07 17:06 | 46.43586 | 11.23738 | 22921 ft | 412 kts | 240° |
| 2026-05-07 17:07 | 46.42232 | 11.20082 | 23209 ft | 413 kts | 245° |
| 2026-05-07 17:07 | 46.41385 | 11.17603 | 23458 ft | 413 kts | 245° |
| 2026-05-07 17:07 | 46.40099 | 11.13865 | 23843 ft | 414 kts | 245° |
| 2026-05-07 17:07 | 46.38807 | 11.10133 | 24177 ft | 415 kts | 245° |
| 2026-05-07 17:08 | 46.37505 | 11.06391 | 24513 ft | 416 kts | 245° |
| 2026-05-07 17:08 | 46.36201 | 11.02645 | 24851 ft | 417 kts | 245° |
| 2026-05-07 17:08 | 46.34900 | 10.98900 | 25181 ft | 417 kts | 245° |
| 2026-05-07 17:08 | 46.33570 | 10.95169 | 25490 ft | 418 kts | 242° |
| 2026-05-07 17:09 | 46.31885 | 10.91718 | 25804 ft | 423 kts | 232° |
| 2026-05-07 17:09 | 46.29773 | 10.88731 | 26131 ft | 427 kts | 221° |
| 2026-05-07 17:09 | 46.27290 | 10.86333 | 26459 ft | 433 kts | 211° |
| 2026-05-07 17:09 | 46.24521 | 10.84553 | 26734 ft | 436 kts | 206° |
| 2026-05-07 17:10 | 46.21870 | 10.82578 | 27008 ft | 433 kts | 217° |
| 2026-05-07 17:10 | 46.19507 | 10.79929 | 27306 ft | 428 kts | 226° |
| 2026-05-07 17:10 | 46.17485 | 10.76801 | 27585 ft | 425 kts | 233° |
| 2026-05-07 17:10 | 46.15563 | 10.73532 | 27855 ft | 426 kts | 232° |
| 2026-05-07 17:11 | 46.13621 | 10.70298 | 28102 ft | 427 kts | 232° |
| 2026-05-07 17:11 | 46.11658 | 10.67069 | 28326 ft | 428 kts | 232° |
| 2026-05-07 17:11 | 46.09687 | 10.63844 | 28543 ft | 429 kts | 232° |
| 2026-05-07 17:11 | 46.07713 | 10.60619 | 28742 ft | 430 kts | 232° |
| 2026-05-07 17:12 | 46.05738 | 10.57387 | 28966 ft | 428 kts | 232° |
| 2026-05-07 17:12 | 46.03780 | 10.54181 | 29341 ft | 425 kts | 232° |
| 2026-05-07 17:12 | 46.01833 | 10.50987 | 29683 ft | 423 kts | 233° |
| 2026-05-07 17:12 | 45.99893 | 10.47806 | 29932 ft | 422 kts | 233° |
| 2026-05-07 17:13 | 45.97962 | 10.44636 | 30133 ft | 421 kts | 233° |
| 2026-05-07 17:13 | 45.96034 | 10.41469 | 30414 ft | 419 kts | 233° |
| 2026-05-07 17:13 | 45.94118 | 10.38326 | 30663 ft | 418 kts | 233° |
| 2026-05-07 17:13 | 45.92203 | 10.35193 | 30869 ft | 417 kts | 233° |
| 2026-05-07 17:14 | 45.90286 | 10.32061 | 31112 ft | 416 kts | 233° |
| 2026-05-07 17:14 | 45.88378 | 10.28948 | 31379 ft | 414 kts | 232° |
| 2026-05-07 17:14 | 45.86475 | 10.25860 | 31658 ft | 412 kts | 232° |
| 2026-05-07 17:14 | 45.84576 | 10.22786 | 31912 ft | 411 kts | 232° |
| 2026-05-07 17:15 | 45.82676 | 10.19707 | 32167 ft | 410 kts | 232° |
| 2026-05-07 17:15 | 45.80813 | 10.16681 | 32401 ft | 410 kts | 232° |
| 2026-05-07 17:15 | 45.78932 | 10.13624 | 32623 ft | 409 kts | 232° |
| 2026-05-07 17:15 | 45.77048 | 10.10567 | 32849 ft | 408 kts | 232° |
| 2026-05-07 17:16 | 45.75168 | 10.07522 | 33101 ft | 408 kts | 232° |
| 2026-05-07 17:16 | 45.73289 | 10.04486 | 33314 ft | 407 kts | 232° |
| 2026-05-07 17:16 | 45.71408 | 10.01452 | 33493 ft | 406 kts | 232° |
| 2026-05-07 17:16 | 45.69539 | 9.98441 | 33801 ft | 403 kts | 232° |
| 2026-05-07 17:17 | 45.67680 | 9.95448 | 34021 ft | 402 kts | 232° |
| 2026-05-07 17:17 | 45.65821 | 9.92459 | 34189 ft | 402 kts | 232° |
| 2026-05-07 17:17 | 45.63962 | 9.89468 | 34319 ft | 402 kts | 232° |
| 2026-05-07 17:17 | 45.62104 | 9.86480 | 34462 ft | 403 kts | 232° |
| 2026-05-07 17:18 | 45.60245 | 9.83494 | 34603 ft | 403 kts | 232° |
| 2026-05-07 17:18 | 45.58378 | 9.80503 | 34733 ft | 403 kts | 232° |
| 2026-05-07 17:18 | 45.56514 | 9.77519 | 34905 ft | 403 kts | 232° |
| 2026-05-07 17:18 | 45.54644 | 9.74534 | 34944 ft | 403 kts | 231° |
| 2026-05-07 17:19 | 45.50939 | 9.68638 | 35020 ft | 401 kts | 231° |
| 2026-05-07 17:19 | 45.47214 | 9.62720 | 35024 ft | 401 kts | 231° |
| 2026-05-07 17:20 | 45.43485 | 9.56796 | 35020 ft | 401 kts | 231° |
| 2026-05-07 17:20 | 45.39760 | 9.50881 | 35013 ft | 401 kts | 231° |
| 2026-05-07 17:21 | 45.36029 | 9.44975 | 34995 ft | 401 kts | 231° |
| 2026-05-07 17:21 | 45.32301 | 9.39088 | 34992 ft | 401 kts | 231° |
| 2026-05-07 17:22 | 45.28582 | 9.33230 | 34972 ft | 401 kts | 231° |
| 2026-05-07 17:22 | 45.24817 | 9.27323 | 34979 ft | 401 kts | 231° |
| 2026-05-07 17:23 | 45.21073 | 9.21456 | 34974 ft | 401 kts | 231° |
| 2026-05-07 17:23 | 45.17326 | 9.15597 | 34966 ft | 401 kts | 231° |
| 2026-05-07 17:24 | 45.13581 | 9.09746 | 34971 ft | 400 kts | 231° |
| 2026-05-07 17:24 | 45.09859 | 9.03940 | 34982 ft | 400 kts | 231° |
| 2026-05-07 17:25 | 45.06111 | 8.98107 | 34986 ft | 400 kts | 231° |
| 2026-05-07 17:25 | 45.02364 | 8.92294 | 34970 ft | 400 kts | 230° |
| 2026-05-07 17:26 | 44.98612 | 8.86497 | 34981 ft | 399 kts | 230° |
| 2026-05-07 17:26 | 44.94867 | 8.80708 | 34988 ft | 399 kts | 230° |
| 2026-05-07 17:27 | 44.91125 | 8.74933 | 34988 ft | 399 kts | 230° |
| 2026-05-07 17:27 | 44.87375 | 8.69158 | 34986 ft | 399 kts | 230° |
| 2026-05-07 17:28 | 44.83617 | 8.63389 | 34977 ft | 398 kts | 230° |
| 2026-05-07 17:28 | 44.79879 | 8.57647 | 34988 ft | 397 kts | 230° |
| 2026-05-07 17:29 | 44.76157 | 8.51959 | 34987 ft | 397 kts | 230° |
| 2026-05-07 17:29 | 44.72415 | 8.46253 | 34988 ft | 396 kts | 230° |
| 2026-05-07 17:30 | 44.68673 | 8.40554 | 34985 ft | 396 kts | 230° |
| 2026-05-07 17:30 | 44.64938 | 8.34872 | 34988 ft | 395 kts | 230° |
| 2026-05-07 17:31 | 44.61208 | 8.29212 | 34996 ft | 394 kts | 230° |
| 2026-05-07 17:31 | 44.57483 | 8.23572 | 34993 ft | 394 kts | 230° |
| 2026-05-07 17:32 | 44.53755 | 8.17946 | 34990 ft | 393 kts | 230° |
| 2026-05-07 17:32 | 44.50659 | 8.13276 | 34988 ft | 393 kts | 230° |
| 2026-05-07 17:33 | 44.46331 | 8.06761 | 34980 ft | 393 kts | 230° |
| 2026-05-07 17:33 | 44.42606 | 8.01171 | 34976 ft | 392 kts | 230° |
| 2026-05-07 17:34 | 44.38882 | 7.95580 | 34988 ft | 393 kts | 230° |
| 2026-05-07 17:34 | 44.35149 | 7.89995 | 34978 ft | 393 kts | 230° |
| 2026-05-07 17:35 | 44.31410 | 7.84417 | 34970 ft | 393 kts | 230° |
| 2026-05-07 17:35 | 44.27669 | 7.78852 | 34981 ft | 393 kts | 229° |
| 2026-05-07 17:36 | 44.23616 | 7.73694 | 34992 ft | 394 kts | 225° |
| 2026-05-07 17:36 | 44.19507 | 7.68634 | 34993 ft | 394 kts | 225° |
| 2026-05-07 17:37 | 44.15399 | 7.63575 | 34972 ft | 394 kts | 225° |
| 2026-05-07 17:37 | 44.11729 | 7.57998 | 35008 ft | 390 kts | 232° |
| 2026-05-07 17:38 | 44.08204 | 7.52334 | 35015 ft | 389 kts | 232° |
| 2026-05-07 17:38 | 44.04652 | 7.46659 | 35006 ft | 388 kts | 231° |
| 2026-05-07 17:39 | 44.01094 | 7.41008 | 35012 ft | 388 kts | 231° |
| 2026-05-07 17:39 | 43.97539 | 7.35354 | 34996 ft | 388 kts | 232° |
| 2026-05-07 17:40 | 43.94003 | 7.29723 | 35007 ft | 386 kts | 232° |
| 2026-05-07 17:40 | 43.90470 | 7.24121 | 35000 ft | 384 kts | 231° |
| 2026-05-07 17:41 | 43.86943 | 7.18553 | 34995 ft | 384 kts | 231° |
| 2026-05-07 17:41 | 43.83420 | 7.12985 | 34990 ft | 384 kts | 232° |
| 2026-05-07 17:42 | 43.79898 | 7.07435 | 34975 ft | 383 kts | 231° |
| 2026-05-07 17:42 | 43.76376 | 7.01899 | 34981 ft | 383 kts | 231° |
| 2026-05-07 17:43 | 43.72914 | 6.96318 | 34979 ft | 381 kts | 237° |
| 2026-05-07 17:43 | 43.70571 | 6.89815 | 34982 ft | 378 kts | 248° |
| 2026-05-07 17:44 | 43.68600 | 6.83064 | 34980 ft | 379 kts | 248° |
| 2026-05-07 17:44 | 43.66607 | 6.76330 | 34977 ft | 379 kts | 248° |
| 2026-05-07 17:45 | 43.64607 | 6.69593 | 34973 ft | 379 kts | 248° |
| 2026-05-07 17:45 | 43.62623 | 6.62894 | 34950 ft | 379 kts | 247° |
| 2026-05-07 17:46 | 43.60620 | 6.56150 | 34955 ft | 380 kts | 247° |
| 2026-05-07 17:46 | 43.58609 | 6.49406 | 34944 ft | 380 kts | 247° |
| 2026-05-07 17:47 | 43.56598 | 6.42669 | 34958 ft | 380 kts | 247° |
| 2026-05-07 17:47 | 43.54578 | 6.35933 | 34950 ft | 380 kts | 247° |
| 2026-05-07 17:48 | 43.52553 | 6.29192 | 34949 ft | 381 kts | 247° |
| 2026-05-07 17:48 | 43.50520 | 6.22446 | 34950 ft | 381 kts | 247° |
| 2026-05-07 17:49 | 43.48482 | 6.15708 | 34954 ft | 381 kts | 247° |
| 2026-05-07 17:49 | 43.46456 | 6.09004 | 34932 ft | 381 kts | 246° |
| 2026-05-07 17:50 | 43.44412 | 6.02255 | 34953 ft | 382 kts | 246° |
| 2026-05-07 17:50 | 43.42698 | 5.96631 | 34955 ft | 383 kts | 246° |
| 2026-05-07 17:51 | 43.40633 | 5.89876 | 34964 ft | 383 kts | 246° |
| 2026-05-07 17:51 | 43.38565 | 5.83122 | 34968 ft | 384 kts | 246° |
| 2026-05-07 17:52 | 43.36494 | 5.76361 | 34972 ft | 384 kts | 246° |
| 2026-05-07 17:52 | 43.34414 | 5.69598 | 34981 ft | 384 kts | 246° |
| 2026-05-07 17:53 | 43.32329 | 5.62823 | 34987 ft | 385 kts | 246° |
| 2026-05-07 17:53 | 43.30231 | 5.56039 | 34987 ft | 385 kts | 246° |
| 2026-05-07 17:54 | 43.28127 | 5.49264 | 34972 ft | 386 kts | 245° |
| 2026-05-07 17:54 | 43.26034 | 5.42521 | 34974 ft | 386 kts | 245° |
| 2026-05-07 17:55 | 43.23922 | 5.35739 | 34980 ft | 387 kts | 245° |
| 2026-05-07 17:55 | 43.21805 | 5.28959 | 35001 ft | 387 kts | 245° |
| 2026-05-07 17:56 | 43.19686 | 5.22177 | 34996 ft | 387 kts | 245° |
| 2026-05-07 17:56 | 43.17556 | 5.15393 | 34993 ft | 387 kts | 245° |
| 2026-05-07 17:57 | 43.15787 | 5.09767 | 34989 ft | 387 kts | 245° |
| 2026-05-07 17:57 | 43.13296 | 5.01859 | 34986 ft | 387 kts | 245° |
| 2026-05-07 17:58 | 43.11162 | 4.95111 | 34991 ft | 387 kts | 245° |
| 2026-05-07 17:58 | 43.09011 | 4.88363 | 34992 ft | 387 kts | 245° |
| 2026-05-07 17:59 | 43.06862 | 4.81615 | 34990 ft | 386 kts | 244° |
| 2026-05-07 17:59 | 43.03878 | 4.75637 | 34988 ft | 385 kts | 226° |
| 2026-05-07 18:00 | 42.99879 | 4.70758 | 34982 ft | 385 kts | 223° |
| 2026-05-07 18:00 | 42.95864 | 4.65908 | 34982 ft | 385 kts | 223° |
| 2026-05-07 18:01 | 42.91847 | 4.61053 | 34968 ft | 385 kts | 223° |
| 2026-05-07 18:01 | 42.87835 | 4.56215 | 34994 ft | 385 kts | 223° |
| 2026-05-07 18:02 | 42.81812 | 4.48987 | 34990 ft | 384 kts | 223° |
| 2026-05-07 18:03 | 42.77826 | 4.44209 | 34989 ft | 384 kts | 223° |
| 2026-05-07 18:03 | 42.73815 | 4.39405 | 34987 ft | 384 kts | 223° |
| 2026-05-07 18:04 | 42.69801 | 4.34613 | 34985 ft | 384 kts | 223° |
| 2026-05-07 18:04 | 42.65791 | 4.29823 | 34983 ft | 384 kts | 223° |
| 2026-05-07 18:05 | 42.61784 | 4.25046 | 34981 ft | 383 kts | 223° |
| 2026-05-07 18:05 | 42.57767 | 4.20271 | 34979 ft | 383 kts | 223° |
| 2026-05-07 18:06 | 42.53750 | 4.15512 | 34988 ft | 383 kts | 222° |
| 2026-05-07 18:06 | 42.49759 | 4.10787 | 34983 ft | 383 kts | 222° |
| 2026-05-07 18:07 | 42.45740 | 4.06035 | 34981 ft | 383 kts | 222° |
| 2026-05-07 18:07 | 42.41726 | 4.01296 | 34981 ft | 383 kts | 222° |
| 2026-05-07 18:08 | 42.37707 | 3.96561 | 34985 ft | 383 kts | 222° |
| 2026-05-07 18:08 | 42.33678 | 3.91834 | 34968 ft | 383 kts | 221° |
| 2026-05-07 18:09 | 42.29645 | 3.87106 | 34969 ft | 384 kts | 221° |
| 2026-05-07 18:09 | 42.25754 | 3.82220 | 34969 ft | 384 kts | 230° |
| 2026-05-07 18:10 | 42.22618 | 3.76375 | 34988 ft | 385 kts | 233° |
| 2026-05-07 18:10 | 42.19518 | 3.70473 | 34988 ft | 385 kts | 233° |
| 2026-05-07 18:11 | 42.16410 | 3.64579 | 34989 ft | 386 kts | 233° |
| 2026-05-07 18:11 | 42.13293 | 3.58689 | 34982 ft | 386 kts | 233° |
| 2026-05-07 18:12 | 42.10169 | 3.52802 | 34979 ft | 386 kts | 233° |
| 2026-05-07 18:12 | 42.07062 | 3.46949 | 34978 ft | 386 kts | 233° |
| 2026-05-07 18:13 | 42.03935 | 3.41074 | 34976 ft | 386 kts | 233° |
| 2026-05-07 18:13 | 42.00803 | 3.35192 | 34977 ft | 387 kts | 233° |
| 2026-05-07 18:14 | 41.97671 | 3.29319 | 34980 ft | 387 kts | 233° |
| 2026-05-07 18:14 | 41.94529 | 3.23450 | 34980 ft | 387 kts | 233° |
| 2026-05-07 18:15 | 41.91378 | 3.17577 | 34964 ft | 387 kts | 233° |
| 2026-05-07 18:15 | 41.88221 | 3.11710 | 34966 ft | 388 kts | 233° |
| 2026-05-07 18:16 | 41.85065 | 3.05843 | 34966 ft | 388 kts | 233° |
| 2026-05-07 18:16 | 41.81926 | 3.00007 | 34987 ft | 388 kts | 233° |
| 2026-05-07 18:17 | 41.78759 | 2.94142 | 34986 ft | 388 kts | 232° |
| 2026-05-07 18:17 | 41.75584 | 2.88287 | 34984 ft | 388 kts | 232° |
| 2026-05-07 18:18 | 41.72412 | 2.82444 | 34981 ft | 388 kts | 232° |
| 2026-05-07 18:18 | 41.69231 | 2.76590 | 34976 ft | 388 kts | 232° |
| 2026-05-07 18:19 | 41.66007 | 2.70807 | 34974 ft | 388 kts | 231° |
| 2026-05-07 18:19 | 41.62670 | 2.65114 | 34986 ft | 389 kts | 230° |
| 2026-05-07 18:20 | 41.59320 | 2.59438 | 34989 ft | 389 kts | 230° |
| 2026-05-07 18:20 | 41.55990 | 2.53750 | 34987 ft | 389 kts | 230° |
| 2026-05-07 18:21 | 41.52678 | 2.48088 | 34975 ft | 389 kts | 230° |
| 2026-05-07 18:21 | 41.49348 | 2.42404 | 34968 ft | 389 kts | 230° |
| 2026-05-07 18:22 | 41.46010 | 2.36713 | 34970 ft | 389 kts | 230° |
| 2026-05-07 18:22 | 41.42673 | 2.31032 | 34968 ft | 390 kts | 230° |
| 2026-05-07 18:23 | 41.39321 | 2.25350 | 34980 ft | 390 kts | 230° |
| 2026-05-07 18:23 | 41.35959 | 2.19662 | 34977 ft | 391 kts | 230° |
| 2026-05-07 18:24 | 41.32621 | 2.13950 | 34951 ft | 392 kts | 233° |
| 2026-05-07 18:24 | 41.30370 | 2.07302 | 34951 ft | 402 kts | 252° |
| 2026-05-07 18:25 | 41.29465 | 1.99909 | 34963 ft | 406 kts | 256° |
| 2026-05-07 18:25 | 41.28616 | 1.92488 | 34962 ft | 407 kts | 256° |
| 2026-05-07 18:26 | 41.27766 | 1.85097 | 34980 ft | 407 kts | 256° |
| 2026-05-07 18:26 | 41.26894 | 1.77601 | 34974 ft | 408 kts | 256° |
| 2026-05-07 18:27 | 41.26023 | 1.70208 | 34982 ft | 408 kts | 256° |
| 2026-05-07 18:27 | 41.25146 | 1.62761 | 34980 ft | 408 kts | 256° |
| 2026-05-07 18:28 | 41.24267 | 1.55305 | 34981 ft | 408 kts | 256° |
| 2026-05-07 18:28 | 41.23378 | 1.47860 | 34987 ft | 409 kts | 256° |
| 2026-05-07 18:29 | 41.22484 | 1.40385 | 34987 ft | 409 kts | 256° |
| 2026-05-07 18:29 | 41.21586 | 1.32917 | 34976 ft | 409 kts | 256° |
| 2026-05-07 18:30 | 41.20679 | 1.25452 | 34974 ft | 410 kts | 256° |
| 2026-05-07 18:30 | 41.19767 | 1.17979 | 34984 ft | 410 kts | 256° |
| 2026-05-07 18:31 | 41.18860 | 1.10503 | 34985 ft | 411 kts | 257° |
| 2026-05-07 18:31 | 41.17946 | 1.03004 | 34969 ft | 412 kts | 257° |
| 2026-05-07 18:32 | 41.17015 | 0.95488 | 34964 ft | 413 kts | 256° |
| 2026-05-07 18:32 | 41.16070 | 0.87956 | 34961 ft | 414 kts | 256° |
| 2026-05-07 18:33 | 41.15118 | 0.80417 | 34966 ft | 414 kts | 256° |
| 2026-05-07 18:33 | 41.14173 | 0.72918 | 34968 ft | 415 kts | 258° |
| 2026-05-07 18:34 | 41.13219 | 0.65360 | 34958 ft | 416 kts | 258° |
| 2026-05-07 18:34 | 41.12261 | 0.57772 | 34946 ft | 417 kts | 258° |
| 2026-05-07 18:35 | 41.11296 | 0.50192 | 34945 ft | 417 kts | 258° |
| 2026-05-07 18:35 | 41.10327 | 0.42587 | 34945 ft | 418 kts | 258° |
| 2026-05-07 18:36 | 41.09515 | 0.36274 | 34956 ft | 418 kts | 259° |
| 2026-05-07 18:36 | 41.08525 | 0.28658 | 34955 ft | 419 kts | 259° |
| 2026-05-07 18:37 | 41.07531 | 0.21045 | 34960 ft | 419 kts | 259° |
| 2026-05-07 18:37 | 41.06526 | 0.13419 | 34956 ft | 420 kts | 259° |
| 2026-05-07 18:38 | 41.05515 | 0.05795 | 34963 ft | 420 kts | 259° |
| 2026-05-07 18:38 | 41.04506 | -0.01787 | 34978 ft | 420 kts | 259° |
| 2026-05-07 18:39 | 41.03478 | -0.09455 | 34978 ft | 420 kts | 259° |
| 2026-05-07 18:39 | 41.02474 | -0.17017 | 34975 ft | 419 kts | 260° |
| 2026-05-07 18:40 | 41.01454 | -0.24624 | 34970 ft | 419 kts | 259° |
| 2026-05-07 18:40 | 40.99971 | -0.32076 | 34978 ft | 419 kts | 250° |
| 2026-05-07 18:41 | 40.97991 | -0.39332 | 34974 ft | 419 kts | 251° |
| 2026-05-07 18:41 | 40.96031 | -0.46599 | 34978 ft | 419 kts | 251° |
| 2026-05-07 18:42 | 40.94061 | -0.53875 | 34975 ft | 420 kts | 250° |
| 2026-05-07 18:42 | 40.92093 | -0.61092 | 34976 ft | 420 kts | 250° |
| 2026-05-07 18:43 | 40.90104 | -0.68347 | 34976 ft | 419 kts | 251° |
| 2026-05-07 18:43 | 40.88124 | -0.75575 | 34984 ft | 417 kts | 251° |
| 2026-05-07 18:44 | 40.86150 | -0.82767 | 35010 ft | 415 kts | 252° |
| 2026-05-07 18:44 | 40.84177 | -0.89915 | 35006 ft | 413 kts | 252° |
| 2026-05-07 18:45 | 40.82201 | -0.97041 | 35010 ft | 413 kts | 252° |
| 2026-05-07 18:45 | 40.80227 | -1.04153 | 35010 ft | 412 kts | 252° |
| 2026-05-07 18:46 | 40.78248 | -1.11250 | 35008 ft | 412 kts | 252° |
| 2026-05-07 18:46 | 40.76274 | -1.18331 | 34996 ft | 406 kts | 252° |
| 2026-05-07 18:46 | 40.75314 | -1.21750 | 34988 ft | 390 kts | 252° |
| 2026-05-07 18:47 | 40.74388 | -1.25033 | 34991 ft | 373 kts | 252° |
| 2026-05-07 18:47 | 40.73642 | -1.28236 | 34995 ft | 361 kts | 264° |
| 2026-05-07 18:47 | 40.73646 | -1.31507 | 34995 ft | 357 kts | 281° |
| 2026-05-07 18:47 | 40.74416 | -1.34616 | 34997 ft | 359 kts | 296° |
| 2026-05-07 18:48 | 40.75884 | -1.37290 | 35000 ft | 364 kts | 313° |
| 2026-05-07 18:48 | 40.77920 | -1.39248 | 34990 ft | 374 kts | 329° |
| 2026-05-07 18:48 | 40.80430 | -1.40296 | 34988 ft | 387 kts | 348° |
| 2026-05-07 18:48 | 40.83153 | -1.40169 | 34992 ft | 402 kts | 8° |
| 2026-05-07 18:49 | 40.85781 | -1.38747 | 34990 ft | 418 kts | 29° |
| 2026-05-07 18:49 | 40.87929 | -1.36092 | 34994 ft | 431 kts | 52° |
| 2026-05-07 18:49 | 40.89298 | -1.32537 | 34987 ft | 437 kts | 65° |
| 2026-05-07 18:50 | 40.91400 | -1.24962 | 34996 ft | 440 kts | 69° |
| 2026-05-07 18:50 | 40.92935 | -1.17143 | 34977 ft | 443 kts | 91° |
| 2026-05-07 18:50 | 40.92395 | -1.13182 | 34974 ft | 437 kts | 115° |
| 2026-05-07 18:51 | 40.90824 | -1.09823 | 34974 ft | 426 kts | 139° |
| 2026-05-07 18:51 | 40.88494 | -1.07548 | 34982 ft | 412 kts | 162° |
| 2026-05-07 18:51 | 40.85791 | -1.06529 | 34988 ft | 400 kts | 182° |
| 2026-05-07 18:51 | 40.83067 | -1.06782 | 34988 ft | 389 kts | 202° |
| 2026-05-07 18:52 | 40.80625 | -1.08184 | 34997 ft | 378 kts | 220° |
| 2026-05-07 18:52 | 40.78729 | -1.10496 | 34992 ft | 369 kts | 238° |
| 2026-05-07 18:52 | 40.77513 | -1.13423 | 34997 ft | 362 kts | 253° |
| 2026-05-07 18:53 | 40.75832 | -1.19645 | 34993 ft | 362 kts | 253° |
| 2026-05-07 18:53 | 40.74144 | -1.25911 | 35003 ft | 362 kts | 254° |
| 2026-05-07 18:53 | 40.73602 | -1.29110 | 34997 ft | 356 kts | 270° |
| 2026-05-07 18:54 | 40.73868 | -1.32335 | 34986 ft | 354 kts | 287° |
| 2026-05-07 18:54 | 40.74904 | -1.35265 | 34980 ft | 356 kts | 303° |
| 2026-05-07 18:54 | 40.76632 | -1.37631 | 34973 ft | 363 kts | 321° |
| 2026-05-07 18:54 | 40.78910 | -1.39143 | 34967 ft | 374 kts | 339° |
| 2026-05-07 18:55 | 40.81521 | -1.39566 | 34962 ft | 388 kts | 359° |
| 2026-05-07 18:55 | 40.84190 | -1.38703 | 34989 ft | 406 kts | 20° |
| 2026-05-07 18:55 | 40.86544 | -1.36495 | 35002 ft | 425 kts | 44° |
| 2026-05-07 18:55 | 40.88147 | -1.33229 | 35000 ft | 438 kts | 64° |
| 2026-05-07 18:56 | 40.89286 | -1.29460 | 34999 ft | 443 kts | 66° |
| 2026-05-07 18:56 | 40.91304 | -1.21734 | 34994 ft | 442 kts | 69° |
| 2026-05-07 18:56 | 40.91966 | -1.17774 | 34984 ft | 444 kts | 88° |
| 2026-05-07 18:57 | 40.91563 | -1.13756 | 34999 ft | 442 kts | 112° |
| 2026-05-07 18:57 | 40.90111 | -1.10264 | 34974 ft | 431 kts | 136° |
| 2026-05-07 18:57 | 40.87840 | -1.07805 | 34992 ft | 418 kts | 160° |
| 2026-05-07 18:57 | 40.85120 | -1.06713 | 34991 ft | 403 kts | 184° |
| 2026-05-07 18:58 | 40.82407 | -1.07110 | 34995 ft | 386 kts | 207° |
| 2026-05-07 18:58 | 40.80137 | -1.08835 | 35000 ft | 373 kts | 227° |
| 2026-05-07 18:58 | 40.78448 | -1.11335 | 34999 ft | 366 kts | 242° |
| 2026-05-07 18:59 | 40.76305 | -1.17366 | 34992 ft | 362 kts | 252° |
| 2026-05-07 18:59 | 40.74635 | -1.23616 | 35003 ft | 360 kts | 255° |
| 2026-05-07 19:00 | 40.73590 | -1.29981 | 34997 ft | 354 kts | 276° |
| 2026-05-07 19:00 | 40.74106 | -1.33137 | 34989 ft | 352 kts | 291° |
| 2026-05-07 19:00 | 40.75339 | -1.35926 | 34986 ft | 356 kts | 308° |
| 2026-05-07 19:00 | 40.77222 | -1.38071 | 34973 ft | 363 kts | 326° |
| 2026-05-07 19:01 | 40.79608 | -1.39280 | 34967 ft | 375 kts | 345° |
| 2026-05-07 19:01 | 40.82259 | -1.39330 | 34988 ft | 393 kts | 5° |
| 2026-05-07 19:01 | 40.84878 | -1.38041 | 34994 ft | 413 kts | 27° |
| 2026-05-07 19:01 | 40.87009 | -1.35474 | 35005 ft | 430 kts | 51° |
| 2026-05-07 19:02 | 40.88401 | -1.31935 | 35011 ft | 440 kts | 65° |
| 2026-05-07 19:02 | 40.90503 | -1.24284 | 35020 ft | 443 kts | 69° |
| 2026-05-07 19:03 | 40.91782 | -1.16366 | 34995 ft | 444 kts | 96° |
| 2026-05-07 19:03 | 40.90988 | -1.12454 | 35005 ft | 440 kts | 120° |
| 2026-05-07 19:03 | 40.89207 | -1.09259 | 34976 ft | 427 kts | 144° |
| 2026-05-07 19:03 | 40.86728 | -1.07249 | 35000 ft | 413 kts | 168° |
| 2026-05-07 19:04 | 40.83961 | -1.06676 | 34993 ft | 397 kts | 192° |
| 2026-05-07 19:04 | 40.81359 | -1.07574 | 34998 ft | 380 kts | 216° |
| 2026-05-07 19:04 | 40.79364 | -1.09661 | 35001 ft | 368 kts | 235° |
| 2026-05-07 19:04 | 40.77950 | -1.12436 | 35001 ft | 363 kts | 247° |
| 2026-05-07 19:05 | 40.76895 | -1.15455 | 34990 ft | 362 kts | 251° |
| 2026-05-07 19:05 | 40.75144 | -1.21660 | 35003 ft | 359 kts | 255° |
| 2026-05-07 19:06 | 40.73669 | -1.27938 | 34996 ft | 356 kts | 265° |
| 2026-05-07 19:06 | 40.74471 | -1.34206 | 34993 ft | 352 kts | 297° |
| 2026-05-07 19:06 | 40.75961 | -1.36778 | 34987 ft | 357 kts | 315° |
| 2026-05-07 19:07 | 40.78059 | -1.38592 | 34975 ft | 367 kts | 333° |
| 2026-05-07 19:07 | 40.80576 | -1.39363 | 34969 ft | 381 kts | 352° |
| 2026-05-07 19:07 | 40.83247 | -1.38902 | 34981 ft | 398 kts | 13° |
| 2026-05-07 19:07 | 40.85719 | -1.37116 | 35008 ft | 418 kts | 36° |
| 2026-05-07 19:08 | 40.87566 | -1.34144 | 35001 ft | 434 kts | 59° |
| 2026-05-07 19:08 | 40.88786 | -1.30446 | 35007 ft | 441 kts | 65° |
| 2026-05-07 19:08 | 40.90450 | -1.22642 | 34999 ft | 447 kts | 89° |
| 2026-05-07 19:09 | 40.89984 | -1.18606 | 34747 ft | 444 kts | 113° |
| 2026-05-07 19:09 | 40.88444 | -1.15137 | 34661 ft | 434 kts | 138° |
| 2026-05-07 19:09 | 40.86097 | -1.12744 | 34690 ft | 421 kts | 161° |
| 2026-05-07 19:09 | 40.83352 | -1.11733 | 34682 ft | 404 kts | 183° |
| 2026-05-07 19:10 | 40.80565 | -1.11899 | 34575 ft | 400 kts | 198° |
| 2026-05-07 19:10 | 40.77950 | -1.13044 | 34497 ft | 395 kts | 214° |
| 2026-05-07 19:10 | 40.75723 | -1.15106 | 34405 ft | 390 kts | 231° |
| 2026-05-07 19:10 | 40.74064 | -1.17879 | 34324 ft | 382 kts | 246° |
| 2026-05-07 19:11 | 40.72221 | -1.24405 | 34241 ft | 385 kts | 256° |
| 2026-05-07 19:11 | 40.71378 | -1.27810 | 33600 ft | 395 kts | 255° |
| 2026-05-07 19:11 | 40.70531 | -1.31206 | 32828 ft | 396 kts | 255° |
| 2026-05-07 19:12 | 40.69658 | -1.34669 | 32060 ft | 398 kts | 254° |
| 2026-05-07 19:12 | 40.68779 | -1.38128 | 31311 ft | 399 kts | 253° |
| 2026-05-07 19:12 | 40.67893 | -1.41599 | 30564 ft | 402 kts | 253° |
| 2026-05-07 19:12 | 40.66993 | -1.45126 | 29740 ft | 407 kts | 252° |
| 2026-05-07 19:13 | 40.66103 | -1.48617 | 29284 ft | 399 kts | 252° |
| 2026-05-07 19:13 | 40.65227 | -1.52053 | 28760 ft | 392 kts | 252° |
| 2026-05-07 19:13 | 40.64364 | -1.55431 | 28261 ft | 386 kts | 253° |
| 2026-05-07 19:13 | 40.63516 | -1.58761 | 27750 ft | 382 kts | 253° |
| 2026-05-07 19:14 | 40.62672 | -1.62071 | 27260 ft | 380 kts | 252° |
| 2026-05-07 19:14 | 40.61833 | -1.65359 | 26773 ft | 378 kts | 252° |
| 2026-05-07 19:14 | 40.61006 | -1.68588 | 26290 ft | 376 kts | 252° |
| 2026-05-07 19:14 | 40.60169 | -1.71849 | 25812 ft | 375 kts | 251° |
| 2026-05-07 19:15 | 40.59336 | -1.75092 | 25330 ft | 374 kts | 251° |
| 2026-05-07 19:15 | 40.58506 | -1.78320 | 24845 ft | 372 kts | 251° |
| 2026-05-07 19:15 | 40.57667 | -1.81578 | 24381 ft | 384 kts | 250° |
| 2026-05-07 19:15 | 40.56797 | -1.84939 | 23874 ft | 391 kts | 250° |
| 2026-05-07 19:16 | 40.55917 | -1.88332 | 23364 ft | 391 kts | 250° |
| 2026-05-07 19:16 | 40.55043 | -1.91709 | 22876 ft | 389 kts | 250° |
| 2026-05-07 19:16 | 40.54173 | -1.95073 | 22428 ft | 387 kts | 251° |
| 2026-05-07 19:16 | 40.53308 | -1.98415 | 21986 ft | 385 kts | 251° |
| 2026-05-07 19:17 | 40.52449 | -2.01727 | 21557 ft | 382 kts | 251° |
| 2026-05-07 19:17 | 40.51585 | -2.05027 | 21144 ft | 380 kts | 249° |
| 2026-05-07 19:17 | 40.50447 | -2.08136 | 20708 ft | 377 kts | 239° |
| 2026-05-07 19:17 | 40.49081 | -2.11057 | 20227 ft | 374 kts | 238° |
| 2026-05-07 19:18 | 40.47722 | -2.13963 | 19754 ft | 372 kts | 238° |
| 2026-05-07 19:18 | 40.46374 | -2.16845 | 19306 ft | 369 kts | 238° |
| 2026-05-07 19:18 | 40.45032 | -2.19708 | 18839 ft | 367 kts | 238° |
| 2026-05-07 19:18 | 40.43699 | -2.22551 | 18383 ft | 364 kts | 239° |
| 2026-05-07 19:19 | 40.42382 | -2.25367 | 17895 ft | 361 kts | 238° |
| 2026-05-07 19:19 | 40.41068 | -2.28175 | 17435 ft | 360 kts | 238° |
| 2026-05-07 19:19 | 40.39762 | -2.30967 | 16988 ft | 359 kts | 238° |
| 2026-05-07 19:19 | 40.38456 | -2.33754 | 16542 ft | 358 kts | 238° |
| 2026-05-07 19:20 | 40.37168 | -2.36485 | 16103 ft | 356 kts | 238° |
| 2026-05-07 19:20 | 40.35859 | -2.39255 | 15654 ft | 356 kts | 238° |
| 2026-05-07 19:20 | 40.34561 | -2.42000 | 15214 ft | 354 kts | 238° |
| 2026-05-07 19:20 | 40.33266 | -2.44738 | 14767 ft | 352 kts | 238° |
| 2026-05-07 19:21 | 40.31997 | -2.47427 | 14566 ft | 339 kts | 238° |
| 2026-05-07 19:21 | 40.30784 | -2.49998 | 14441 ft | 325 kts | 238° |
| 2026-05-07 19:21 | 40.29621 | -2.52459 | 14318 ft | 311 kts | 238° |
| 2026-05-07 19:21 | 40.28504 | -2.54815 | 14192 ft | 298 kts | 238° |
| 2026-05-07 19:22 | 40.27431 | -2.57079 | 14082 ft | 286 kts | 238° |
| 2026-05-07 19:22 | 40.26493 | -2.59312 | 13945 ft | 274 kts | 249° |
| 2026-05-07 19:22 | 40.26054 | -2.61684 | 13765 ft | 266 kts | 265° |
| 2026-05-07 19:22 | 40.26035 | -2.64081 | 13565 ft | 262 kts | 269° |
| 2026-05-07 19:23 | 40.26038 | -2.65659 | 13409 ft | 263 kts | 269° |
| 2026-05-07 19:23 | 40.26033 | -2.68048 | 13141 ft | 261 kts | 269° |
| 2026-05-07 19:23 | 40.26024 | -2.70423 | 12895 ft | 261 kts | 269° |
| 2026-05-07 19:23 | 40.26009 | -2.73566 | 12554 ft | 259 kts | 268° |
| 2026-05-07 19:24 | 40.26004 | -2.75147 | 12374 ft | 260 kts | 269° |
| 2026-05-07 19:24 | 40.25999 | -2.78274 | 12031 ft | 257 kts | 269° |
| 2026-05-07 19:24 | 40.25995 | -2.79858 | 11855 ft | 258 kts | 269° |
| 2026-05-07 19:24 | 40.25990 | -2.82201 | 11602 ft | 257 kts | 268° |
| 2026-05-07 19:25 | 40.25982 | -2.84527 | 11346 ft | 255 kts | 268° |
| 2026-05-07 19:25 | 40.25973 | -2.86845 | 11096 ft | 254 kts | 268° |
| 2026-05-07 19:25 | 40.25963 | -2.89159 | 10843 ft | 254 kts | 268° |
| 2026-05-07 19:25 | 40.25952 | -2.91448 | 10587 ft | 253 kts | 268° |
| 2026-05-07 19:26 | 40.25938 | -2.93776 | 10334 ft | 253 kts | 268° |
| 2026-05-07 19:26 | 40.25923 | -2.96053 | 10090 ft | 253 kts | 268° |
| 2026-05-07 19:26 | 40.25909 | -2.98385 | 9832 ft | 252 kts | 268° |
| 2026-05-07 19:26 | 40.25896 | -3.00652 | 9563 ft | 251 kts | 268° |
| 2026-05-07 19:27 | 40.25883 | -3.02935 | 9305 ft | 250 kts | 268° |
| 2026-05-07 19:27 | 40.25872 | -3.05214 | 9064 ft | 250 kts | 267° |
| 2026-05-07 19:27 | 40.25858 | -3.07484 | 8807 ft | 248 kts | 268° |
| 2026-05-07 19:27 | 40.25842 | -3.09740 | 8561 ft | 247 kts | 268° |
| 2026-05-07 19:28 | 40.25826 | -3.11964 | 8316 ft | 247 kts | 268° |
| 2026-05-07 19:28 | 40.25889 | -3.14207 | 8067 ft | 247 kts | 278° |
| 2026-05-07 19:28 | 40.26191 | -3.16451 | 7824 ft | 247 kts | 278° |
| 2026-05-07 19:28 | 40.26488 | -3.18660 | 7581 ft | 246 kts | 278° |
| 2026-05-07 19:29 | 40.26777 | -3.20841 | 7342 ft | 246 kts | 278° |
| 2026-05-07 19:29 | 40.27068 | -3.23048 | 7116 ft | 245 kts | 278° |
| 2026-05-07 19:29 | 40.27358 | -3.25245 | 7019 ft | 245 kts | 278° |
| 2026-05-07 19:29 | 40.27649 | -3.27447 | 6995 ft | 245 kts | 278° |
| 2026-05-07 19:30 | 40.27940 | -3.29655 | 6711 ft | 247 kts | 278° |
| 2026-05-07 19:30 | 40.28307 | -3.31860 | 6315 ft | 249 kts | 289° |
| 2026-05-07 19:30 | 40.29136 | -3.33849 | 5927 ft | 250 kts | 308° |
| 2026-05-07 19:30 | 40.30251 | -3.35547 | 5694 ft | 241 kts | 310° |
| 2026-05-07 19:31 | 40.31338 | -3.37179 | 5430 ft | 233 kts | 313° |
| 2026-05-07 19:31 | 40.32517 | -3.38594 | 5185 ft | 227 kts | 320° |
| 2026-05-07 19:31 | 40.33729 | -3.39840 | 5058 ft | 213 kts | 322° |
| 2026-05-07 19:31 | 40.34858 | -3.40975 | 4933 ft | 201 kts | 322° |
| 2026-05-07 19:32 | 40.35970 | -3.42095 | 4712 ft | 197 kts | 322° |
| 2026-05-07 19:32 | 40.37049 | -3.43184 | 4467 ft | 195 kts | 322° |
| 2026-05-07 19:32 | 40.38124 | -3.44271 | 4212 ft | 195 kts | 323° |
| 2026-05-07 19:32 | 40.39181 | -3.45339 | 3963 ft | 186 kts | 323° |
| 2026-05-07 19:33 | 40.40170 | -3.46340 | 3713 ft | 178 kts | 323° |
| 2026-05-07 19:33 | 40.41117 | -3.47298 | 3479 ft | 166 kts | 324° |
| 2026-05-07 19:33 | 40.42013 | -3.48205 | 3270 ft | 160 kts | 324° |
| 2026-05-07 19:33 | 40.42874 | -3.49077 | 3041 ft | 150 kts | 323° |
| 2026-05-07 19:34 | 40.43686 | -3.49899 | 2841 ft | 146 kts | 323° |
| 2026-05-07 19:34 | 40.44484 | -3.50711 | 2671 ft | 145 kts | 323° |
| 2026-05-07 19:34 | 40.45271 | -3.51516 | 2437 ft | 142 kts | 324° |
| 2026-05-07 19:34 | 40.46050 | -3.52311 | 2259 ft | 142 kts | 323° |
| 2026-05-07 19:35 | 40.46836 | -3.53107 | 2081 ft | 143 kts | 324° |
| 2026-05-07 19:35 | 40.47617 | -3.53895 | 1930 ft | 140 kts | 323° |
| 2026-05-07 19:35 | 40.48298 | -3.54580 | 1934 ft | 98 kts | 322° |
| 2026-05-07 19:35 | 40.48709 | -3.54999 | 1949 ft | 62 kts | 322° |
| 2026-05-07 19:36 | 40.48998 | -3.55295 | 1953 ft | 41 kts | 321° |
| 2026-05-07 19:36 | 40.49146 | -3.55456 | 1955 ft | 20 kts | 311° |
| 2026-05-07 19:36 | 40.49211 | -3.55598 | 1959 ft | 16 kts | 294° |
| 2026-05-07 19:36 | 40.49252 | -3.55723 | 1961 ft | 14 kts | 293° |
| 2026-05-07 19:37 | 40.49289 | -3.55838 | 1965 ft | 14 kts | 291° |
| 2026-05-07 19:37 | 40.49300 | -3.55958 | 1960 ft | 13 kts | 270° |
| 2026-05-07 19:37 | 40.49299 | -3.56078 | 1958 ft | 13 kts | 269° |
| 2026-05-07 19:37 | 40.49329 | -3.56147 | 1959 ft | 7 kts | 5° |
| 2026-05-07 19:38 | 40.49377 | -3.56142 | 1959 ft | 7 kts | 0° |
| 2026-05-07 19:38 | 40.49448 | -3.56141 | 1959 ft | 15 kts | 0° |
| 2026-05-07 19:38 | 40.49540 | -3.56160 | 1961 ft | 12 kts | 315° |
| 2026-05-07 19:38 | 40.49553 | -3.56257 | 1962 ft | 11 kts | 270° |
| 2026-05-07 19:39 | 40.49554 | -3.56375 | 1965 ft | 14 kts | 270° |
| 2026-05-07 19:39 | 40.49507 | -3.56449 | 1967 ft | 10 kts | 188° |
| 2026-05-07 19:39 | 40.49420 | -3.56451 | 1967 ft | 16 kts | 180° |
| 2026-05-07 19:39 | 40.49296 | -3.56452 | 1967 ft | 18 kts | 180° |
| 2026-05-07 19:40 | 40.49215 | -3.56450 | 1967 ft | 11 kts | 178° |
| 2026-05-07 19:40 | 40.49144 | -3.56448 | 1967 ft | 10 kts | 179° |
| 2026-05-07 19:40 | 40.49073 | -3.56447 | 1967 ft | 10 kts | 180° |
| 2026-05-07 19:40 | 40.49039 | -3.56503 | 1974 ft | 7 kts | 262° |
| 2026-05-07 19:41 | 40.49037 | -3.56564 | 1972 ft | 6 kts | 269° |
| 2026-05-07 19:41 | 40.49036 | -3.56625 | 1973 ft | 6 kts | 269° |
| 2026-05-07 19:41 | 40.49036 | -3.56636 | 1972 ft | 0 kts | 269° |